Poquott, New York
Current Conditions -  °F | °C
As of 11:56 PM on Monday 20 Oct 2014 (Local Time) from KISP Reporting Station
Broken Clouds Broken Clouds  
Wind Chill: 57°   Ceiling: 14000
Heat Index: 57°   Visibility: 10mi
Dew Point: 47°   Wind: 8mph
Humidity: 69%   Direction: 230°SW
Pressure: 29.96"   Gusts: NA
Location:  40.9344°N, 73.1065°W
Report Text: KISP 210356Z 23007KT 10SM FEW055 BKN140 BKN260 14/08 A2996 RMK AO2 SLP145 LAST AUGMENTED OBSERVATION UNTIL 1000Z T01390083
Loading
Personal Weather Stations






























Interactive Weather Map
Tropical Storm Tracking
New forecast layout! Learn more

10-Day Weather Forecast

Advertisements
Track Severe Weather on mobile